createdAt,value
2018-07-06T00:01:03.798Z,101302.85
2018-07-06T00:03:44.955Z,101303.97
2018-07-06T00:06:25.699Z,101306.14
2018-07-06T00:09:06.885Z,101308.32
2018-07-06T00:11:47.210Z,101306.12
2018-07-06T00:14:27.622Z,101312.98
2018-07-06T00:17:08.174Z,101311.89
2018-07-06T00:19:48.694Z,101310.51
2018-07-06T00:22:29.132Z,101308.88
2018-07-06T00:25:09.555Z,101317.33
2018-07-06T00:27:50.012Z,101315.66
2018-07-06T00:30:31.064Z,101316.48
2018-07-06T00:33:11.397Z,101314.34
2018-07-06T00:35:52.165Z,101316.22
2018-07-06T00:38:32.803Z,101316.73
2018-07-06T00:41:13.605Z,101324.09
2018-07-06T00:43:54.538Z,101316.17
2018-07-06T00:46:35.041Z,101320.59
2018-07-06T00:49:15.833Z,101326.33
2018-07-06T00:51:56.939Z,101324.69
2018-07-06T00:54:38.512Z,101324.09
2018-07-06T00:57:18.931Z,101329.83
2018-07-06T00:59:59.651Z,101328.71
2018-07-06T01:02:40.390Z,101324.90
2018-07-06T01:05:21.093Z,101329.23
2018-07-06T01:08:01.546Z,101338.00
2018-07-06T01:10:42.474Z,101339.35
2018-07-06T01:13:22.720Z,101342.08
2018-07-06T01:16:03.203Z,101347.56
2018-07-06T01:18:43.834Z,101342.87
2018-07-06T01:21:24.764Z,101348.57
2018-07-06T01:24:05.987Z,101349.64
2018-07-06T01:26:46.372Z,101358.37
2018-07-06T01:29:27.125Z,101359.78
2018-07-06T01:32:07.698Z,101363.01
2018-07-06T01:34:48.467Z,101372.91
2018-07-06T01:37:29.674Z,101369.58
2018-07-06T01:40:11.824Z,101366.55
2018-07-06T01:42:52.399Z,101369.83
2018-07-06T01:45:33.489Z,101373.11
2018-07-06T01:48:14.285Z,101373.11
2018-07-06T01:50:55.558Z,101367.64
2018-07-06T01:53:36.279Z,101365.69
2018-07-06T01:56:16.722Z,101365.94
2018-07-06T01:58:57.715Z,101365.14
2018-07-06T02:01:38.210Z,101368.91
2018-07-06T02:04:18.691Z,101371.65
2018-07-06T02:06:59.620Z,101368.86
2018-07-06T02:09:40.278Z,101379.31
2018-07-06T02:12:21.010Z,101369.80
2018-07-06T02:15:01.851Z,101372.86
2018-07-06T02:17:42.268Z,101377.39
2018-07-06T02:20:22.861Z,101380.41
2018-07-06T02:23:03.635Z,101377.89
2018-07-06T02:25:44.141Z,101375.44
2018-07-06T02:28:24.763Z,101372.12
2018-07-06T02:31:05.619Z,101377.05
2018-07-06T02:33:46.144Z,101375.12
2018-07-06T02:36:27.271Z,101379.24
2018-07-06T02:39:08.054Z,101377.33
2018-07-06T02:41:48.802Z,101375.18
2018-07-06T02:44:29.566Z,101377.77
2018-07-06T02:47:10.033Z,101373.66
2018-07-06T02:49:50.576Z,101376.70
2018-07-06T02:52:31.083Z,101374.82
2018-07-06T02:55:11.618Z,101378.93
2018-07-06T02:57:52.369Z,101381.27
2018-07-06T03:00:32.905Z,101376.66
2018-07-06T03:03:13.457Z,101381.18
2018-07-06T03:05:54.341Z,101379.55
2018-07-06T03:08:35.167Z,101381.76
2018-07-06T03:11:15.672Z,101379.37
2018-07-06T03:13:56.575Z,101377.70
2018-07-06T03:16:37.213Z,101385.87
2018-07-06T03:19:17.813Z,101385.55
2018-07-06T03:21:58.712Z,101391.50
2018-07-06T03:24:39.490Z,101386.67
2018-07-06T03:27:20.115Z,101393.61
2018-07-06T03:30:00.652Z,101396.61
2018-07-06T03:32:41.292Z,101394.20
2018-07-06T03:35:21.766Z,101392.80
2018-07-06T03:38:03.117Z,101400.61
2018-07-06T03:40:43.743Z,101406.26
2018-07-06T03:43:24.097Z,101412.84
2018-07-06T03:46:05.194Z,101406.87
2018-07-06T03:48:46.071Z,101407.91
2018-07-06T03:51:26.444Z,101416.97
2018-07-06T03:54:07.937Z,101425.17
2018-07-06T03:56:48.889Z,101426.20
2018-07-06T03:59:29.492Z,101427.79
2018-07-06T04:02:10.567Z,101438.97
2018-07-06T04:04:51.636Z,101439.59
2018-07-06T04:07:33.418Z,101445.60
2018-07-06T04:10:14.001Z,101443.30
2018-07-06T04:12:54.836Z,101444.95
2018-07-06T04:15:35.373Z,101456.55
2018-07-06T04:18:16.282Z,101463.86
2018-07-06T04:20:56.597Z,101465.88
2018-07-06T04:23:37.132Z,101472.09
2018-07-06T04:26:17.502Z,101471.91
2018-07-06T04:28:58.572Z,101469.67
2018-07-06T04:31:39.141Z,101476.83
2018-07-06T04:34:20.393Z,101476.94
2018-07-06T04:37:00.782Z,101486.73
2018-07-06T04:39:41.377Z,101486.71
2018-07-06T04:42:22.402Z,101487.09
2018-07-06T04:45:03.403Z,101484.44
2018-07-06T04:47:44.271Z,101486.19
2018-07-06T04:50:24.994Z,101494.58
2018-07-06T04:53:05.518Z,101494.55
2018-07-06T04:55:47.058Z,101497.64
2018-07-06T04:58:27.912Z,101503.77
2018-07-06T05:01:08.380Z,101499.00
2018-07-06T05:03:49.205Z,101499.11
2018-07-06T05:06:29.832Z,101508.18
2018-07-06T05:09:10.283Z,101507.42
2018-07-06T05:11:50.763Z,101504.70
2018-07-06T05:14:31.521Z,101508.02
2018-07-06T05:17:12.431Z,101508.73
2018-07-06T05:19:53.071Z,101510.05
2018-07-06T05:22:33.860Z,101505.38
2018-07-06T05:25:14.350Z,101505.95
2018-07-06T05:27:54.877Z,101511.07
2018-07-06T05:30:35.340Z,101509.78
2018-07-06T05:33:15.798Z,101518.95
2018-07-06T05:35:56.490Z,101519.17
2018-07-06T05:38:38.858Z,101518.89
2018-07-06T05:41:19.938Z,101519.28
2018-07-06T05:44:00.890Z,101525.64
2018-07-06T05:46:41.920Z,101529.31
2018-07-06T05:49:26.389Z,101522.41
2018-07-06T05:52:06.764Z,101522.99
2018-07-06T05:54:47.662Z,101531.73
2018-07-06T05:57:28.580Z,101524.45
2018-07-06T06:00:09.106Z,101524.19
2018-07-06T06:02:49.755Z,101521.98
2018-07-06T06:05:30.738Z,101528.30
2018-07-06T06:07:59.027Z,101535.84
2018-07-06T06:10:28.804Z,101532.56
2018-07-06T06:12:58.728Z,101536.75
2018-07-06T06:15:28.442Z,101540.45
2018-07-06T06:17:58.147Z,101550.17
2018-07-06T06:20:27.438Z,101546.48
2018-07-06T06:22:57.829Z,101550.02
2018-07-06T06:25:27.651Z,101547.56
2018-07-06T06:27:57.651Z,101556.59
2018-07-06T06:30:27.976Z,101558.31
2018-07-06T06:32:58.836Z,101558.05
2018-07-06T06:35:32.497Z,101568.08
2018-07-06T06:38:02.293Z,101569.78
2018-07-06T06:40:31.717Z,101569.11
2018-07-06T06:43:01.514Z,101572.45
2018-07-06T06:45:31.461Z,101576.23
2018-07-06T06:48:01.354Z,101573.30
2018-07-06T06:50:30.765Z,101576.50
2018-07-06T06:53:00.219Z,101578.11
2018-07-06T06:55:30.010Z,101573.89
2018-07-06T06:58:00.204Z,101574.53
2018-07-06T07:00:30.835Z,101577.26
2018-07-06T07:03:00.269Z,101580.36
2018-07-06T07:05:30.350Z,101587.19
2018-07-06T07:08:00.342Z,101586.30
2018-07-06T07:10:29.810Z,101594.82
2018-07-06T07:12:59.528Z,101588.23
2018-07-06T07:15:29.067Z,101596.37
2018-07-06T07:17:59.437Z,101602.18
2018-07-06T07:20:29.500Z,101603.55
2018-07-06T07:22:59.156Z,101604.95
2018-07-06T07:25:29.191Z,101608.19
2018-07-06T07:27:58.591Z,101610.95
2018-07-06T07:30:27.826Z,101609.84
2018-07-06T07:32:58.400Z,101610.17
2018-07-06T07:35:27.698Z,101610.20
2018-07-06T07:37:57.802Z,101619.00
2018-07-06T07:40:27.422Z,101620.36
2018-07-06T07:42:58.116Z,101619.17
2018-07-06T07:45:28.260Z,101618.09
2018-07-06T07:47:58.330Z,101618.44
2018-07-06T07:50:28.345Z,101615.49
2018-07-06T07:53:08.872Z,101612.76
2018-07-06T07:55:38.244Z,101614.30
2018-07-06T07:58:07.872Z,101613.05
2018-07-06T08:00:37.809Z,101610.97
2018-07-06T08:03:08.118Z,101608.23
2018-07-06T08:05:38.293Z,101610.44
2018-07-06T08:08:07.954Z,101609.46
2018-07-06T08:10:37.464Z,101616.81
2018-07-06T08:13:09.230Z,101610.86
2018-07-06T08:15:38.732Z,101618.25
2018-07-06T08:18:08.418Z,101616.23
2018-07-06T08:20:37.947Z,101611.32
2018-07-06T08:23:08.137Z,101617.77
2018-07-06T08:25:37.991Z,101615.05
2018-07-06T08:28:07.654Z,101613.68
2018-07-06T08:30:37.408Z,101621.40
2018-07-06T08:33:06.799Z,101623.00
2018-07-06T08:35:47.376Z,101617.02
2018-07-06T08:38:17.351Z,101620.84
2018-07-06T08:40:46.969Z,101616.47
2018-07-06T08:43:17.074Z,101620.36
2018-07-06T08:45:46.930Z,101619.26
2018-07-06T08:48:16.362Z,101618.50
2018-07-06T08:50:46.286Z,101624.80
2018-07-06T08:53:15.991Z,101621.49
2018-07-06T08:55:45.278Z,101635.17
2018-07-06T08:58:14.587Z,101632.49
2018-07-06T09:00:43.827Z,101623.78
2018-07-06T09:03:13.920Z,101629.73
2018-07-06T09:05:43.220Z,101631.15
2018-07-06T09:08:12.929Z,101636.71
2018-07-06T09:10:43.229Z,101638.10
2018-07-06T09:13:13.625Z,101633.98
2018-07-06T09:15:42.974Z,101633.46
2018-07-06T09:18:12.813Z,101636.48
2018-07-06T09:20:43.043Z,101641.42
2018-07-06T09:23:13.999Z,101638.45
2018-07-06T09:25:43.689Z,101640.66
2018-07-06T09:28:13.206Z,101634.30
2018-07-06T09:30:44.488Z,101636.55
2018-07-06T09:33:14.492Z,101641.72
2018-07-06T09:35:44.522Z,101635.66
2018-07-06T09:38:13.931Z,101634.63
2018-07-06T09:40:43.772Z,101638.75
2018-07-06T09:43:13.480Z,101637.66
2018-07-06T09:45:43.507Z,101640.41
2018-07-06T09:48:13.590Z,101637.67
2018-07-06T09:50:43.910Z,101639.60
2018-07-06T09:53:14.105Z,101639.59
2018-07-06T09:55:43.529Z,101636.86
2018-07-06T09:58:13.041Z,101637.37
2018-07-06T10:00:48.108Z,101642.05
2018-07-06T10:03:18.080Z,101636.84
2018-07-06T10:05:47.846Z,101637.13
2018-07-06T10:08:17.126Z,101638.75
2018-07-06T10:10:47.537Z,101638.73
2018-07-06T10:13:17.433Z,101637.94
2018-07-06T10:15:46.907Z,101642.61
2018-07-06T10:18:17.238Z,101642.34
2018-07-06T10:20:47.152Z,101632.75
2018-07-06T10:23:16.874Z,101630.80
2018-07-06T10:25:46.268Z,101630.80
2018-07-06T10:29:29.763Z,101630.48
2018-07-06T10:32:17.899Z,101636.19
2018-07-06T10:34:47.610Z,101629.30
2018-07-06T10:37:18.187Z,101636.19
2018-07-06T10:39:48.320Z,101637.30
2018-07-06T10:42:18.082Z,101644.35
2018-07-06T10:44:48.149Z,101646.57
2018-07-06T10:47:17.521Z,101641.34
2018-07-06T10:49:49.099Z,101634.25
2018-07-06T10:52:19.033Z,101635.27
2018-07-06T10:54:48.844Z,101634.47
2018-07-06T10:57:18.230Z,101635.28
2018-07-06T10:59:47.913Z,101647.59
2018-07-06T11:02:17.674Z,101638.19
2018-07-06T11:04:46.954Z,101639.73
2018-07-06T11:07:17.478Z,101635.02
2018-07-06T11:09:47.406Z,101640.80
2018-07-06T11:12:17.047Z,101639.42
2018-07-06T11:14:46.914Z,101644.67
2018-07-06T11:17:16.426Z,101637.47
2018-07-06T11:19:46.142Z,101642.03
2018-07-06T11:22:15.741Z,101645.88
2018-07-06T11:24:45.040Z,101642.81
2018-07-06T11:27:15.163Z,101638.12
2018-07-06T11:29:44.492Z,101635.43
2018-07-06T11:32:13.909Z,101634.55
2018-07-06T11:34:43.153Z,101635.70
2018-07-06T11:37:12.653Z,101638.70
2018-07-06T11:39:41.896Z,101633.20
2018-07-06T11:42:11.507Z,101633.89
2018-07-06T11:44:41.442Z,101630.33
2018-07-06T11:47:11.123Z,101634.03
2018-07-06T11:49:41.309Z,101623.05
2018-07-06T11:52:11.290Z,101634.38
2018-07-06T11:54:40.538Z,101637.05
2018-07-06T11:57:10.526Z,101639.89
2018-07-06T11:59:40.661Z,101629.05
2018-07-06T12:02:10.710Z,101629.72
2018-07-06T12:04:40.224Z,101635.64
2018-07-06T12:07:10.221Z,101624.70
2018-07-06T12:09:40.126Z,101622.75
2018-07-06T12:12:10.289Z,101623.02
2018-07-06T12:14:39.945Z,101626.83
2018-07-06T12:17:10.026Z,101618.00
2018-07-06T12:19:39.983Z,101618.84
2018-07-06T12:22:09.602Z,101627.08
2018-07-06T12:24:39.515Z,101627.66
2018-07-06T12:27:09.303Z,101619.05
2018-07-06T12:29:39.257Z,101623.12
2018-07-06T12:32:09.117Z,101618.91
2018-07-06T12:34:38.740Z,101624.70
2018-07-06T12:37:08.815Z,101616.20
2018-07-06T12:39:38.278Z,101609.79
2018-07-06T12:42:08.180Z,101609.35
2018-07-06T12:44:38.001Z,101608.55
2018-07-06T12:47:08.038Z,101605.97
2018-07-06T12:49:37.739Z,101609.81
2018-07-06T12:52:07.741Z,101601.28
2018-07-06T12:54:37.142Z,101608.12
2018-07-06T12:57:07.238Z,101602.30
2018-07-06T12:59:37.115Z,101600.61
2018-07-06T13:02:07.973Z,101600.06
2018-07-06T13:04:42.136Z,101601.16
2018-07-06T13:07:12.270Z,101600.30
2018-07-06T13:09:41.779Z,101601.00
2018-07-06T13:12:11.442Z,101607.74
2018-07-06T13:14:41.762Z,101611.40
2018-07-06T13:17:11.707Z,101611.50
2018-07-06T13:19:41.948Z,101617.28
2018-07-06T13:22:14.794Z,101612.05
2018-07-06T13:24:44.770Z,101607.78
2018-07-06T13:27:14.040Z,101618.76
2018-07-06T13:29:43.955Z,101617.34
2018-07-06T13:32:13.721Z,101616.07
2018-07-06T13:34:43.411Z,101604.41
2018-07-06T13:37:12.844Z,101605.29
2018-07-06T13:39:42.717Z,101603.00
2018-07-06T13:42:12.765Z,101607.15
2018-07-06T13:44:42.550Z,101607.41
2018-07-06T13:47:11.912Z,101598.25
2018-07-06T13:49:41.217Z,101607.63
2018-07-06T13:52:10.632Z,101607.72
2018-07-06T13:54:40.350Z,101607.14
2018-07-06T13:57:09.902Z,101608.33
2018-07-06T13:59:39.775Z,101606.98
2018-07-06T14:02:09.705Z,101608.36
2018-07-06T14:04:39.752Z,101610.67
2018-07-06T14:07:09.631Z,101605.65
2018-07-06T14:09:39.701Z,101605.50
2018-07-06T14:12:09.975Z,101611.04
2018-07-06T14:14:39.354Z,101619.20
2018-07-06T14:17:09.484Z,101616.41
2018-07-06T14:19:39.599Z,101608.27
2018-07-06T14:22:09.099Z,101610.41
2018-07-06T14:24:38.772Z,101608.44
2018-07-06T14:27:09.927Z,101620.55
2018-07-06T14:29:39.510Z,101617.20
2018-07-06T14:32:09.115Z,101618.27
2018-07-06T14:34:39.354Z,101612.62
2018-07-06T14:37:09.603Z,101625.80
2018-07-06T14:39:39.764Z,101626.71
2018-07-06T14:42:09.718Z,101621.38
2018-07-06T14:44:39.055Z,101623.08
2018-07-06T14:47:08.508Z,101617.70
2018-07-06T14:49:38.292Z,101621.12
2018-07-06T14:52:08.081Z,101628.32
2018-07-06T14:54:38.019Z,101625.38
2018-07-06T14:57:11.084Z,101620.92
2018-07-06T14:59:40.825Z,101626.72
2018-07-06T15:02:10.808Z,101627.27
2018-07-06T15:04:40.682Z,101621.88
2018-07-06T15:07:09.999Z,101628.77
2018-07-06T15:09:43.213Z,101622.04
2018-07-06T15:12:13.137Z,101621.45
2018-07-06T15:14:43.326Z,101629.77
2018-07-06T15:17:13.460Z,101627.14
2018-07-06T15:19:43.469Z,101629.55
2018-07-06T15:22:13.050Z,101633.68
2018-07-06T15:24:42.533Z,101636.68
2018-07-06T15:27:12.586Z,101641.62
2018-07-06T15:29:42.507Z,101644.55
2018-07-06T15:32:12.168Z,101637.73
2018-07-06T15:34:41.849Z,101647.38
2018-07-06T15:37:11.279Z,101649.56
2018-07-06T15:39:41.751Z,101645.37
2018-07-06T15:42:11.732Z,101649.58
2018-07-06T15:44:41.961Z,101645.72
2018-07-06T15:47:11.877Z,101645.33
2018-07-06T15:49:41.670Z,101651.61
2018-07-06T15:52:10.995Z,101646.85
2018-07-06T15:54:41.475Z,101651.34
2018-07-06T15:57:10.817Z,101649.31
2018-07-06T15:59:40.374Z,101643.37
2018-07-06T16:02:10.116Z,101647.69
2018-07-06T16:04:39.753Z,101645.83
2018-07-06T16:07:09.792Z,101641.23
2018-07-06T16:09:39.290Z,101646.29
2018-07-06T16:12:09.088Z,101646.29
2018-07-06T16:14:39.470Z,101647.55
2018-07-06T16:17:10.267Z,101644.22
2018-07-06T16:19:39.538Z,101644.45
2018-07-06T16:22:09.208Z,101649.80
2018-07-06T16:24:38.533Z,101650.63
2018-07-06T16:27:08.237Z,101645.23
2018-07-06T16:29:38.037Z,101645.37
2018-07-06T16:32:08.774Z,101643.98
2018-07-06T16:34:38.721Z,101638.47
2018-07-06T16:37:08.363Z,101637.51
2018-07-06T16:39:38.446Z,101639.34
2018-07-06T16:42:11.428Z,101644.02
2018-07-06T16:44:41.877Z,101642.25
2018-07-06T16:47:11.637Z,101639.89
2018-07-06T16:49:41.310Z,101635.27
2018-07-06T16:52:11.578Z,101642.91
2018-07-06T16:54:41.114Z,101635.64
2018-07-06T16:57:14.197Z,101641.22
2018-07-06T16:59:43.882Z,101642.56
2018-07-06T17:02:14.010Z,101638.77
2018-07-06T17:04:43.858Z,101645.39
2018-07-06T17:07:14.032Z,101644.05
2018-07-06T17:09:43.781Z,101649.02
2018-07-06T17:12:13.767Z,101649.32
2018-07-06T17:14:43.551Z,101646.27
2018-07-06T17:17:13.360Z,101648.75
2018-07-06T17:19:43.598Z,101646.23
2018-07-06T17:22:13.949Z,101647.09
2018-07-06T17:24:43.618Z,101644.62
2018-07-06T17:27:13.577Z,101648.58
2018-07-06T17:29:43.458Z,101641.77
2018-07-06T17:32:12.882Z,101650.53
2018-07-06T17:34:43.058Z,101645.19
2018-07-06T17:37:13.397Z,101652.31
2018-07-06T17:39:43.541Z,101645.62
2018-07-06T17:42:13.761Z,101642.80
2018-07-06T17:44:43.864Z,101645.55
2018-07-06T17:47:14.080Z,101646.19
2018-07-06T17:49:43.514Z,101643.10
2018-07-06T17:52:13.164Z,101634.20
2018-07-06T17:54:42.846Z,101649.63
2018-07-06T17:57:13.355Z,101643.20
2018-07-06T17:59:43.491Z,101640.75
2018-07-06T18:02:13.039Z,101640.75
2018-07-06T18:04:42.579Z,101644.98
2018-07-06T18:07:12.890Z,101636.45
2018-07-06T18:09:43.331Z,101635.38
2018-07-06T18:12:13.144Z,101635.18
2018-07-06T18:14:43.831Z,101633.80
2018-07-06T18:17:14.529Z,101631.95
2018-07-06T18:19:44.888Z,101638.57
2018-07-06T18:22:14.194Z,101643.54
2018-07-06T18:24:45.330Z,101639.30
2018-07-06T18:27:15.093Z,101639.36
2018-07-06T18:29:44.591Z,101639.09
2018-07-06T18:32:14.476Z,101634.19
2018-07-06T18:34:44.143Z,101640.52
2018-07-06T18:37:14.647Z,101639.09
2018-07-06T18:39:45.316Z,101636.61
2018-07-06T18:42:15.614Z,101638.52
2018-07-06T18:44:45.233Z,101636.37
2018-07-06T18:47:14.849Z,101626.73
2018-07-06T18:49:44.418Z,101632.84
2018-07-06T18:52:14.307Z,101633.70
2018-07-06T18:54:44.411Z,101627.45
2018-07-06T18:57:14.827Z,101632.47
2018-07-06T18:59:48.079Z,101632.26
2018-07-06T19:02:17.913Z,101636.44
2018-07-06T19:04:47.507Z,101633.72
2018-07-06T19:07:17.570Z,101638.95
2018-07-06T19:09:47.768Z,101638.65
2018-07-06T19:12:18.438Z,101643.67
2018-07-06T19:14:48.085Z,101644.20
2018-07-06T19:17:18.003Z,101649.42
2018-07-06T19:19:47.672Z,101652.77
2018-07-06T19:22:18.075Z,101655.55
2018-07-06T19:24:47.693Z,101658.05
2018-07-06T19:27:17.151Z,101668.00
2018-07-06T19:29:46.719Z,101669.71
2018-07-06T19:32:16.366Z,101672.21
2018-07-06T19:34:46.066Z,101671.98
2018-07-06T19:37:19.049Z,101673.38
2018-07-06T19:39:49.295Z,101677.01
2018-07-06T19:42:19.024Z,101677.31
2018-07-06T19:44:49.185Z,101684.77
2018-07-06T19:47:18.861Z,101692.17
2018-07-06T19:49:48.245Z,101692.17
2018-07-06T19:52:18.434Z,101699.32
2018-07-06T19:54:48.908Z,101703.72
2018-07-06T19:57:19.915Z,101707.30
2018-07-06T19:59:49.741Z,101705.67
2018-07-06T20:02:19.769Z,101709.51
2018-07-06T20:04:49.379Z,101723.03
2018-07-06T20:07:19.071Z,101722.78
2018-07-06T20:09:49.615Z,101726.12
2018-07-06T20:12:19.153Z,101726.45
2018-07-06T20:14:49.192Z,101735.56
2018-07-06T20:17:18.912Z,101728.41
2018-07-06T20:19:48.261Z,101736.41
2018-07-06T20:22:21.690Z,101735.63
2018-07-06T20:24:52.047Z,101741.70
2018-07-06T20:27:22.002Z,101737.30
2018-07-06T20:29:51.773Z,101743.09
2018-07-06T20:32:24.920Z,101745.85
2018-07-06T20:34:55.102Z,101747.80
2018-07-06T20:37:24.791Z,101751.66
2018-07-06T20:39:54.134Z,101747.25
2018-07-06T20:42:24.188Z,101748.91
2018-07-06T20:44:54.428Z,101750.85
2018-07-06T20:47:23.968Z,101755.78
2018-07-06T20:49:53.607Z,101754.14
2018-07-06T20:52:23.936Z,101757.44
2018-07-06T20:54:53.536Z,101758.56
2018-07-06T20:57:23.087Z,101756.38
2018-07-06T20:59:53.115Z,101751.97
2018-07-06T21:02:22.720Z,101760.76
2018-07-06T21:04:53.302Z,101755.81
2018-07-06T21:07:23.167Z,101756.11
2018-07-06T21:09:53.594Z,101757.20
2018-07-06T21:12:23.482Z,101761.88
2018-07-06T21:14:53.046Z,101761.32
2018-07-06T21:17:24.066Z,101766.53
2018-07-06T21:19:53.871Z,101767.09
2018-07-06T21:22:23.688Z,101770.11
2018-07-06T21:24:54.000Z,101774.48
2018-07-06T21:27:23.796Z,101768.75
2018-07-06T21:29:53.500Z,101774.76
2018-07-06T21:32:23.835Z,101775.60
2018-07-06T21:34:53.542Z,101775.03
2018-07-06T21:37:23.404Z,101778.59
2018-07-06T21:39:53.256Z,101781.90
2018-07-06T21:42:23.050Z,101781.33
2018-07-06T21:44:52.413Z,101782.17
2018-07-06T21:47:21.922Z,101784.36
2018-07-06T21:49:51.415Z,101786.01
2018-07-06T21:52:21.019Z,101787.94
2018-07-06T21:54:54.224Z,101784.88
2018-07-06T21:57:24.348Z,101786.77
2018-07-06T21:59:54.950Z,101792.01
2018-07-06T22:02:25.351Z,101793.63
2018-07-06T22:04:55.190Z,101790.34
2018-07-06T22:07:24.650Z,101785.67
2018-07-06T22:09:54.169Z,101797.47
2018-07-06T22:12:24.341Z,101798.01
2018-07-06T22:14:54.105Z,101793.34
2018-07-06T22:17:24.332Z,101795.24
2018-07-06T22:19:54.772Z,101794.71
2018-07-06T22:22:24.678Z,101797.17
2018-07-06T22:24:54.618Z,101790.84
2018-07-06T22:27:24.678Z,101793.56
2018-07-06T22:29:58.653Z,101791.64
2018-07-06T22:32:28.866Z,101796.56
2018-07-06T22:34:58.405Z,101793.30
2018-07-06T22:37:28.063Z,101794.08
2018-07-06T22:39:57.625Z,101796.80
2018-07-06T22:42:27.004Z,101800.65
2018-07-06T22:44:56.328Z,101793.00
2018-07-06T22:47:26.435Z,101795.17
2018-07-06T22:49:56.851Z,101791.88
2018-07-06T22:52:27.055Z,101793.52
2018-07-06T22:54:56.687Z,101794.87
2018-07-06T22:57:27.050Z,101790.23
2018-07-06T22:59:56.909Z,101793.77
2018-07-06T23:02:26.576Z,101796.77
2018-07-06T23:04:55.940Z,101794.30
2018-07-06T23:07:25.584Z,101796.97
2018-07-06T23:09:55.583Z,101794.20
2018-07-06T23:12:25.552Z,101790.09
2018-07-06T23:14:55.351Z,101803.20
2018-07-06T23:17:25.159Z,101800.97
2018-07-06T23:19:55.692Z,101800.95
2018-07-06T23:23:07.304Z,101811.89
2018-07-06T23:25:39.669Z,101810.17
2018-07-06T23:28:09.989Z,101808.77
2018-07-06T23:30:40.036Z,101808.47
2018-07-06T23:33:10.549Z,101807.88
2018-07-06T23:35:40.352Z,101805.14
2018-07-06T23:38:09.962Z,101805.72
2018-07-06T23:40:39.819Z,101807.34
2018-07-06T23:43:09.456Z,101808.13
2018-07-06T23:45:39.354Z,101809.22
2018-07-06T23:48:10.864Z,101820.98
2018-07-06T23:50:40.388Z,101816.84
2018-07-06T23:53:10.642Z,101820.10
2018-07-06T23:55:40.714Z,101822.57
2018-07-06T23:58:10.531Z,101817.63
